createdAt,value
2023-01-28T00:00:18.944Z,1.60
2023-01-28T00:02:49.645Z,1.51
2023-01-28T00:05:17.654Z,1.53
2023-01-28T00:07:45.846Z,1.53
2023-01-28T00:10:13.630Z,1.56
2023-01-28T00:12:44.417Z,1.52
2023-01-28T00:15:13.277Z,1.53
2023-01-28T00:17:42.400Z,1.54
2023-01-28T00:20:17.075Z,1.55
2023-01-28T00:22:51.776Z,1.50
2023-01-28T00:25:20.649Z,1.51
2023-01-28T00:27:51.238Z,1.53
2023-01-28T00:30:19.630Z,1.50
2023-01-28T00:32:47.721Z,1.51
2023-01-28T00:35:16.679Z,1.43
2023-01-28T00:37:46.920Z,1.43
2023-01-28T00:40:15.274Z,1.41
2023-01-28T00:42:43.513Z,1.39
2023-01-28T00:45:14.316Z,1.45
2023-01-28T00:47:42.492Z,1.38
2023-01-28T00:50:11.615Z,1.46
2023-01-28T00:52:39.562Z,1.35
2023-01-28T00:55:09.105Z,1.30
2023-01-28T00:57:37.056Z,1.48
2023-01-28T01:00:06.350Z,1.46
2023-01-28T01:02:36.857Z,1.45
2023-01-28T01:05:06.620Z,1.42
2023-01-28T01:07:41.586Z,1.33
2023-01-28T01:10:14.638Z,1.44
2023-01-28T01:12:43.288Z,1.39
2023-01-28T01:15:12.320Z,1.41
2023-01-28T01:17:43.779Z,1.40
2023-01-28T01:20:15.245Z,1.47
2023-01-28T01:22:44.130Z,1.46
2023-01-28T01:25:14.809Z,1.33
2023-01-28T01:27:44.968Z,1.34
2023-01-28T01:30:14.546Z,1.38
2023-01-28T01:32:46.594Z,1.37
2023-01-28T01:35:15.025Z,1.40
2023-01-28T01:37:45.660Z,1.40
2023-01-28T01:40:14.821Z,1.41
2023-01-28T01:42:50.085Z,1.41
2023-01-28T01:45:18.561Z,1.33
2023-01-28T01:47:51.524Z,1.36
2023-01-28T01:50:27.548Z,1.37
2023-01-28T01:53:02.829Z,1.27
2023-01-28T01:55:33.749Z,1.42
2023-01-28T01:58:06.683Z,1.38
2023-01-28T02:00:34.741Z,1.38
2023-01-28T02:03:06.121Z,1.35
2023-01-28T02:05:34.256Z,1.40
2023-01-28T02:08:17.357Z,1.38
2023-01-28T02:10:46.010Z,1.28
2023-01-28T02:13:16.750Z,1.37
2023-01-28T02:15:45.853Z,1.30
2023-01-28T02:18:15.159Z,1.38
2023-01-28T02:21:05.011Z,1.36
2023-01-28T02:24:02.934Z,1.32
2023-01-28T02:26:51.033Z,1.29
2023-01-28T02:29:25.480Z,1.19
2023-01-28T02:31:57.710Z,1.27
2023-01-28T02:34:35.752Z,1.23
2023-01-28T02:37:10.305Z,1.26
2023-01-28T02:39:43.121Z,1.24
2023-01-28T02:42:18.048Z,1.24
2023-01-28T02:44:47.429Z,1.21
2023-01-28T02:47:34.567Z,1.23
2023-01-28T02:50:05.743Z,1.20
2023-01-28T02:53:08.546Z,1.28
2023-01-28T02:56:02.635Z,1.25
2023-01-28T02:58:37.318Z,1.28
2023-01-28T03:01:16.740Z,1.25
2023-01-28T03:04:02.568Z,1.23
2023-01-28T03:06:35.820Z,1.27
2023-01-28T03:09:24.048Z,1.31
2023-01-28T03:12:14.110Z,1.28
2023-01-28T03:15:02.652Z,1.28
2023-01-28T03:17:59.387Z,1.24
2023-01-28T03:20:47.995Z,1.29
2023-01-28T03:23:40.336Z,1.30
2023-01-28T03:26:29.069Z,1.32
2023-01-28T03:29:21.650Z,1.29
2023-01-28T03:32:07.230Z,1.30
2023-01-28T03:34:54.439Z,1.24
2023-01-28T03:37:23.572Z,1.28
2023-01-28T03:40:04.896Z,1.31
2023-01-28T03:42:34.007Z,1.26
2023-01-28T03:45:08.263Z,1.30
2023-01-28T03:47:36.875Z,1.27
2023-01-28T03:50:09.978Z,1.31
2023-01-28T03:52:37.892Z,1.24
2023-01-28T03:55:14.171Z,1.27
2023-01-28T03:57:44.763Z,1.37
2023-01-28T04:00:18.153Z,1.44
2023-01-28T04:02:46.328Z,1.38
2023-01-28T04:05:19.938Z,1.28
2023-01-28T04:07:47.915Z,1.32
2023-01-28T04:10:16.362Z,1.32
2023-01-28T04:12:44.365Z,1.18
2023-01-28T04:15:16.811Z,1.24
2023-01-28T04:17:48.902Z,1.21
2023-01-28T04:20:20.294Z,1.21
2023-01-28T04:22:48.126Z,1.22
2023-01-28T04:25:16.490Z,1.10
2023-01-28T04:27:47.727Z,1.04
2023-01-28T04:30:21.780Z,1.13
2023-01-28T04:32:50.529Z,1.03
2023-01-28T04:35:28.989Z,1.19
2023-01-28T04:37:56.953Z,1.17
2023-01-28T04:40:24.956Z,1.15
2023-01-28T04:42:57.718Z,1.09
2023-01-28T04:45:25.861Z,1.10
2023-01-28T04:47:53.832Z,1.12
2023-01-28T04:50:29.143Z,1.20
2023-01-28T04:52:57.204Z,1.23
2023-01-28T04:55:26.205Z,1.24
2023-01-28T04:57:54.178Z,1.21
2023-01-28T05:00:28.161Z,1.16
2023-01-28T05:02:56.189Z,1.00
2023-01-28T05:05:25.180Z,0.97
2023-01-28T05:07:56.069Z,1.10
2023-01-28T05:10:26.010Z,1.12
2023-01-28T05:12:53.993Z,1.12
2023-01-28T05:15:24.941Z,1.20
2023-01-28T05:17:56.203Z,1.08
2023-01-28T05:20:34.164Z,1.11
2023-01-28T05:23:05.578Z,1.13
2023-01-28T05:25:33.776Z,1.02
2023-01-28T05:28:02.100Z,1.01
2023-01-28T05:30:30.276Z,1.03
2023-01-28T05:32:58.931Z,1.09
2023-01-28T05:35:33.394Z,1.04
2023-01-28T05:38:01.416Z,0.95
2023-01-28T05:40:31.074Z,1.01
2023-01-28T05:43:05.955Z,1.08
2023-01-28T05:45:40.159Z,1.10
2023-01-28T05:48:08.437Z,0.99
2023-01-28T05:50:41.915Z,1.09
2023-01-28T05:53:10.659Z,1.13
2023-01-28T05:55:43.124Z,1.02
2023-01-28T05:58:11.456Z,1.15
2023-01-28T06:00:39.375Z,1.12
2023-01-28T06:03:07.272Z,1.16
2023-01-28T06:05:36.211Z,1.04
2023-01-28T06:08:04.703Z,1.13
2023-01-28T06:10:35.113Z,1.07
2023-01-28T06:13:04.451Z,1.00
2023-01-28T06:15:32.511Z,0.95
2023-01-28T06:18:00.824Z,1.04
2023-01-28T06:20:28.979Z,1.05
2023-01-28T06:22:56.906Z,1.02
2023-01-28T06:25:24.847Z,1.12
2023-01-28T06:27:52.883Z,1.05
2023-01-28T06:30:22.419Z,1.03
2023-01-28T06:32:56.030Z,1.08
2023-01-28T06:35:32.939Z,1.05
2023-01-28T06:38:00.938Z,1.02
2023-01-28T06:40:29.036Z,0.95
2023-01-28T06:42:57.208Z,1.03
2023-01-28T06:45:27.981Z,1.00
2023-01-28T06:47:56.855Z,0.93
2023-01-28T06:50:25.149Z,0.92
2023-01-28T06:52:52.942Z,0.90
2023-01-28T06:55:20.905Z,0.95
2023-01-28T06:57:50.032Z,0.97
2023-01-28T07:00:20.592Z,0.95
2023-01-28T07:02:52.081Z,1.02
2023-01-28T07:05:20.109Z,1.00
2023-01-28T07:07:49.348Z,0.82
2023-01-28T07:10:18.134Z,0.95
2023-01-28T07:12:52.215Z,0.94
2023-01-28T07:15:28.915Z,0.91
2023-01-28T07:17:59.600Z,0.91
2023-01-28T07:20:28.204Z,0.88
2023-01-28T07:22:56.080Z,0.91
2023-01-28T07:25:23.935Z,0.87
2023-01-28T07:27:56.496Z,0.63
2023-01-28T07:30:24.949Z,0.73
2023-01-28T07:32:57.002Z,0.57
2023-01-28T07:35:27.311Z,0.27
2023-01-28T07:37:56.712Z,0.21
2023-01-28T07:40:25.725Z,0.02
2023-01-28T07:42:55.529Z,-0.13
2023-01-28T07:45:24.660Z,-0.07
2023-01-28T07:47:59.761Z,-0.27
2023-01-28T07:50:32.514Z,-0.26
2023-01-28T07:53:04.031Z,-0.29
2023-01-28T07:55:32.120Z,-0.55
2023-01-28T07:58:01.584Z,-0.47
2023-01-28T08:00:31.804Z,-0.78
2023-01-28T08:03:01.506Z,-0.63
2023-01-28T08:05:41.078Z,-0.49
2023-01-28T08:08:09.810Z,-0.44
2023-01-28T08:10:38.917Z,-0.37
2023-01-28T08:13:07.479Z,-0.31
2023-01-28T08:15:35.717Z,-0.31
2023-01-28T08:18:04.719Z,-0.34
2023-01-28T08:20:34.193Z,-0.49
2023-01-28T08:23:09.328Z,-0.41
2023-01-28T08:25:37.630Z,-0.35
2023-01-28T08:28:06.601Z,-0.33
2023-01-28T08:30:35.129Z,0.04
2023-01-28T08:33:03.251Z,0.08
2023-01-28T08:35:31.611Z,0.07
2023-01-28T08:38:02.935Z,0.18
2023-01-28T08:40:31.781Z,0.21
2023-01-28T08:43:01.003Z,0.39
2023-01-28T08:45:31.556Z,0.26
2023-01-28T08:48:02.009Z,0.25
2023-01-28T08:50:39.239Z,0.22
2023-01-28T08:53:12.882Z,0.50
2023-01-28T08:55:41.815Z,0.56
2023-01-28T08:58:13.681Z,0.79
2023-01-28T09:00:43.499Z,1.19
2023-01-28T09:03:12.589Z,1.58
2023-01-28T09:05:41.089Z,1.80
2023-01-28T09:08:14.655Z,1.81
2023-01-28T09:10:42.726Z,1.95
2023-01-28T09:13:14.037Z,1.84
2023-01-28T09:15:44.914Z,2.20
2023-01-28T09:18:15.424Z,2.24
2023-01-28T09:20:43.326Z,2.28
2023-01-28T09:23:12.978Z,2.10
2023-01-28T09:25:41.065Z,1.89
2023-01-28T09:28:10.232Z,2.14
2023-01-28T09:30:39.653Z,2.93
2023-01-28T09:33:09.547Z,3.82
2023-01-28T09:35:43.054Z,4.24
2023-01-28T09:38:12.465Z,4.27
2023-01-28T09:40:44.838Z,5.01
2023-01-28T09:43:52.806Z,6.03
2023-01-28T09:46:21.070Z,5.13
2023-01-28T09:48:51.945Z,6.27
2023-01-28T09:51:33.002Z,6.46
2023-01-28T09:54:07.690Z,5.97
2023-01-28T09:56:44.141Z,6.80
2023-01-28T09:59:19.581Z,6.57
2023-01-28T10:01:55.446Z,7.89
2023-01-28T10:04:40.726Z,7.98
2023-01-28T10:07:26.135Z,7.68
2023-01-28T10:10:02.042Z,8.14
2023-01-28T10:12:50.645Z,5.72
2023-01-28T10:15:44.514Z,4.69
2023-01-28T10:18:17.718Z,6.04
2023-01-28T10:20:50.960Z,6.75
2023-01-28T10:23:23.788Z,6.52
2023-01-28T10:25:54.565Z,5.08
2023-01-28T10:28:25.947Z,4.56
2023-01-28T10:30:54.734Z,4.33
2023-01-28T10:33:30.652Z,4.34
2023-01-28T10:35:58.865Z,4.26
2023-01-28T10:38:34.059Z,4.45
2023-01-28T10:41:08.752Z,4.48
2023-01-28T10:43:41.827Z,4.69
2023-01-28T10:46:15.371Z,4.95
2023-01-28T10:48:47.159Z,5.29
2023-01-28T10:51:15.493Z,5.43
2023-01-28T10:53:45.561Z,5.69
2023-01-28T10:56:18.833Z,5.34
2023-01-28T10:59:00.118Z,5.41
2023-01-28T11:01:43.907Z,5.64
2023-01-28T11:04:23.413Z,5.89
2023-01-28T11:06:57.470Z,5.93
2023-01-28T11:09:27.781Z,6.03
2023-01-28T11:11:57.056Z,5.97
2023-01-28T11:14:27.123Z,5.87
2023-01-28T11:17:02.150Z,6.44
2023-01-28T11:19:36.266Z,6.95
2023-01-28T11:22:05.327Z,7.51
2023-01-28T11:24:35.858Z,7.66
2023-01-28T11:27:16.468Z,7.53
2023-01-28T11:29:46.177Z,7.34
2023-01-28T11:32:19.217Z,6.53
2023-01-28T11:34:51.934Z,6.04
2023-01-28T11:37:22.763Z,6.37
2023-01-28T11:40:01.625Z,6.61
2023-01-28T11:42:33.155Z,7.09
2023-01-28T11:45:01.142Z,6.55
2023-01-28T11:47:51.023Z,6.35
2023-01-28T11:50:32.091Z,6.82
2023-01-28T11:53:17.061Z,6.59
2023-01-28T11:58:58.586Z,6.82
2023-01-28T12:01:44.372Z,7.38
2023-01-28T12:04:22.324Z,7.32
2023-01-28T12:07:08.276Z,6.57
2023-01-28T12:09:46.967Z,6.27
2023-01-28T12:12:32.087Z,6.10
2023-01-28T12:15:21.832Z,6.16
2023-01-28T12:18:03.775Z,6.68
2023-01-28T12:20:40.047Z,6.17
2023-01-28T12:23:24.840Z,5.73
2023-01-28T12:26:06.710Z,5.84
2023-01-28T12:29:02.675Z,5.13
2023-01-28T12:31:52.570Z,5.27
2023-01-28T12:34:59.329Z,5.10
2023-01-28T12:37:41.907Z,5.38
2023-01-28T12:40:50.619Z,6.69
2023-01-28T12:43:25.500Z,7.80
2023-01-28T12:45:58.950Z,8.73
2023-01-28T12:48:34.250Z,8.82
2023-01-28T12:51:08.464Z,8.84
2023-01-28T12:53:41.843Z,9.14
2023-01-28T12:56:17.948Z,9.26
2023-01-28T12:58:52.234Z,8.12
2023-01-28T13:01:29.577Z,6.99
2023-01-28T13:04:05.436Z,6.61
2023-01-28T13:06:39.200Z,6.96
2023-01-28T13:09:17.785Z,7.88
2023-01-28T13:11:48.086Z,8.08
2023-01-28T13:14:17.576Z,8.33
2023-01-28T13:16:45.710Z,7.57
2023-01-28T13:19:26.658Z,6.44
2023-01-28T13:21:54.634Z,7.23
2023-01-28T13:24:33.880Z,7.15
2023-01-28T13:27:14.261Z,7.60
2023-01-28T13:29:44.118Z,8.01
2023-01-28T13:32:33.916Z,8.30
2023-01-28T13:35:07.653Z,7.10
2023-01-28T13:37:39.304Z,7.04
2023-01-28T13:40:25.008Z,6.44
2023-01-28T13:43:02.547Z,6.24
2023-01-28T13:45:31.189Z,6.57
2023-01-28T13:48:08.169Z,6.63
2023-01-28T13:50:43.139Z,5.96
2023-01-28T13:53:24.834Z,6.07
2023-01-28T13:55:56.509Z,6.10
2023-01-28T13:59:11.873Z,6.02
2023-01-28T14:02:03.710Z,6.49
2023-01-28T14:05:02.327Z,5.73
2023-01-28T14:08:03.340Z,5.53
2023-01-28T14:10:50.974Z,5.40
2023-01-28T14:13:47.327Z,5.42
2023-01-28T14:16:34.978Z,5.31
2023-01-28T14:19:04.325Z,5.33
2023-01-28T14:21:39.185Z,5.13
2023-01-28T14:24:16.980Z,5.07
2023-01-28T14:26:54.391Z,5.01
2023-01-28T14:29:35.609Z,5.00
2023-01-28T14:32:07.378Z,4.88
2023-01-28T14:34:37.778Z,5.07
2023-01-28T14:37:09.347Z,4.72
2023-01-28T14:39:45.321Z,4.85
2023-01-28T14:42:20.234Z,4.85
2023-01-28T14:44:54.565Z,4.86
2023-01-28T14:47:48.485Z,4.83
2023-01-28T14:50:28.745Z,4.77
2023-01-28T14:53:40.874Z,4.71
2023-01-28T14:56:22.992Z,4.60
2023-01-28T14:58:54.663Z,4.57
2023-01-28T15:01:24.810Z,4.65
2023-01-28T15:04:00.077Z,4.54
2023-01-28T15:06:40.717Z,4.56
2023-01-28T15:09:13.694Z,4.42
2023-01-28T15:11:49.221Z,4.40
2023-01-28T15:14:25.551Z,4.51
2023-01-28T15:16:54.534Z,4.48
2023-01-28T15:19:28.956Z,4.50
2023-01-28T15:21:58.938Z,4.44
2023-01-28T15:24:27.247Z,4.37
2023-01-28T15:26:57.213Z,4.41
2023-01-28T15:29:28.492Z,4.39
2023-01-28T15:31:56.595Z,4.24
2023-01-28T15:34:30.127Z,4.17
2023-01-28T15:36:58.796Z,4.09
2023-01-28T15:39:28.517Z,4.09
2023-01-28T15:42:03.101Z,4.12
2023-01-28T15:44:49.236Z,4.11
2023-01-28T15:47:19.096Z,4.09
2023-01-28T15:49:51.779Z,4.00
2023-01-28T15:52:30.387Z,3.97
2023-01-28T15:54:59.197Z,3.93
2023-01-28T15:57:33.497Z,3.91
2023-01-28T16:00:12.676Z,3.79
2023-01-28T16:02:45.911Z,3.70
2023-01-28T16:05:29.126Z,3.69
2023-01-28T16:07:58.969Z,3.65
2023-01-28T16:10:30.970Z,3.62
2023-01-28T16:13:07.326Z,3.75
2023-01-28T16:15:39.437Z,3.74
2023-01-28T16:18:08.598Z,3.80
2023-01-28T16:20:36.687Z,3.75
2023-01-28T16:23:05.456Z,3.72
2023-01-28T16:25:44.356Z,3.73
2023-01-28T16:32:00.773Z,3.63
2023-01-28T16:34:42.221Z,3.48
2023-01-28T16:37:11.629Z,3.57
2023-01-28T16:39:40.652Z,3.65
2023-01-28T16:42:10.471Z,3.61
2023-01-28T16:44:38.493Z,3.55
2023-01-28T16:47:10.913Z,3.59
2023-01-28T16:49:42.225Z,3.57
2023-01-28T16:52:12.592Z,3.62
2023-01-28T16:54:45.445Z,3.58
2023-01-28T16:57:16.216Z,3.62
2023-01-28T16:59:44.274Z,3.59
2023-01-28T17:02:18.388Z,3.55
2023-01-28T17:04:54.826Z,3.61
2023-01-28T17:07:41.077Z,3.58
2023-01-28T17:10:12.075Z,3.55
2023-01-28T17:12:48.975Z,3.55
2023-01-28T17:15:18.739Z,3.59
2023-01-28T17:17:50.954Z,3.62
2023-01-28T17:20:19.448Z,3.65
2023-01-28T17:22:48.897Z,3.62
2023-01-28T17:25:22.800Z,3.53
2023-01-28T17:27:51.214Z,3.56
2023-01-28T17:30:21.506Z,3.57
2023-01-28T17:32:56.805Z,3.54
2023-01-28T17:35:26.992Z,3.41
2023-01-28T17:37:55.192Z,3.55
2023-01-28T17:40:24.379Z,3.59
2023-01-28T17:42:55.415Z,3.42
2023-01-28T17:45:25.803Z,3.44
2023-01-28T17:47:56.789Z,3.49
2023-01-28T17:50:24.928Z,3.49
2023-01-28T17:52:56.018Z,3.43
2023-01-28T17:55:24.498Z,3.52
2023-01-28T17:57:52.620Z,3.41
2023-01-28T18:00:28.258Z,3.49
2023-01-28T18:03:01.626Z,3.52
2023-01-28T18:05:29.701Z,3.48
2023-01-28T18:07:57.649Z,3.46
2023-01-28T18:10:25.602Z,3.43
2023-01-28T18:12:56.634Z,3.44
2023-01-28T18:15:25.672Z,3.47
2023-01-28T18:17:54.831Z,3.44
2023-01-28T18:20:24.386Z,3.43
2023-01-28T18:22:52.489Z,3.46
2023-01-28T18:25:20.593Z,3.35
2023-01-28T18:27:49.431Z,3.49
2023-01-28T18:30:18.442Z,3.43
2023-01-28T18:32:47.414Z,3.44
2023-01-28T18:35:16.008Z,3.35
2023-01-28T18:37:46.665Z,3.39
2023-01-28T18:40:15.137Z,3.43
2023-01-28T18:42:44.215Z,3.31
2023-01-28T18:45:12.681Z,3.27
2023-01-28T18:47:41.481Z,3.31
2023-01-28T18:50:10.721Z,3.36
2023-01-28T18:52:39.725Z,3.42
2023-01-28T18:55:10.763Z,3.38
2023-01-28T18:57:39.237Z,3.41
2023-01-28T19:00:08.911Z,3.39
2023-01-28T19:02:36.882Z,3.39
2023-01-28T19:05:05.892Z,3.41
2023-01-28T19:07:33.922Z,3.48
2023-01-28T19:10:02.597Z,3.44
2023-01-28T19:12:34.409Z,3.46
2023-01-28T19:15:02.511Z,3.39
2023-01-28T19:17:30.687Z,3.45
2023-01-28T19:19:58.757Z,3.49
2023-01-28T19:22:28.413Z,3.42
2023-01-28T19:24:56.507Z,3.40
2023-01-28T19:27:25.677Z,3.41
2023-01-28T19:29:55.161Z,3.38
2023-01-28T19:32:23.238Z,3.48
2023-01-28T19:34:51.605Z,3.48
2023-01-28T19:37:19.572Z,3.43
2023-01-28T19:39:48.621Z,3.41
2023-01-28T19:42:16.748Z,3.39
2023-01-28T19:44:44.771Z,3.48
2023-01-28T19:47:15.587Z,3.48
2023-01-28T19:49:43.585Z,3.38
2023-01-28T19:52:11.692Z,3.44
2023-01-28T19:54:39.737Z,3.49
2023-01-28T19:57:08.029Z,3.49
2023-01-28T19:59:38.256Z,3.47
2023-01-28T20:02:06.286Z,3.50
2023-01-28T20:04:35.958Z,3.43
2023-01-28T20:07:04.969Z,3.48
2023-01-28T20:09:33.179Z,3.53
2023-01-28T20:12:01.129Z,3.53
2023-01-28T20:14:29.079Z,3.52
2023-01-28T20:16:57.106Z,3.51
2023-01-28T20:19:25.100Z,3.58
2023-01-28T20:21:54.506Z,3.54
2023-01-28T20:24:23.601Z,3.52
2023-01-28T20:26:51.589Z,3.54
2023-01-28T20:29:22.434Z,3.48
2023-01-28T20:32:13.457Z,3.48
2023-01-28T20:34:41.831Z,3.49
2023-01-28T20:37:21.224Z,3.49
2023-01-28T20:39:49.276Z,3.51
2023-01-28T20:42:18.476Z,3.65
2023-01-28T20:44:48.448Z,3.61
2023-01-28T20:47:17.404Z,3.55
2023-01-28T20:49:47.487Z,3.57
2023-01-28T20:52:17.233Z,3.63
2023-01-28T20:54:46.691Z,3.53
2023-01-28T20:57:14.790Z,3.54
2023-01-28T20:59:42.818Z,3.53
2023-01-28T21:02:12.026Z,3.53
2023-01-28T21:04:44.896Z,3.49
2023-01-28T21:07:14.028Z,3.60
2023-01-28T21:09:43.891Z,3.58
2023-01-28T21:12:14.149Z,3.56
2023-01-28T21:14:42.077Z,3.54
2023-01-28T21:17:10.081Z,3.55
2023-01-28T21:19:41.128Z,3.59
2023-01-28T21:22:10.322Z,3.54
2023-01-28T21:24:38.395Z,3.59
2023-01-28T21:27:06.295Z,3.56
2023-01-28T21:29:35.814Z,3.58
2023-01-28T21:32:03.669Z,3.54
2023-01-28T21:34:32.323Z,3.47
2023-01-28T21:37:02.429Z,3.52
2023-01-28T21:39:31.389Z,3.50
2023-01-28T21:41:59.813Z,3.50
2023-01-28T21:44:27.719Z,3.44
2023-01-28T21:46:57.033Z,3.50
2023-01-28T21:49:26.019Z,3.48
2023-01-28T21:51:54.068Z,3.48
2023-01-28T21:54:24.849Z,3.48
2023-01-28T21:56:53.381Z,3.49
2023-01-28T21:59:30.761Z,3.46
2023-01-28T22:02:04.379Z,3.43
2023-01-28T22:04:34.014Z,3.44
2023-01-28T22:07:03.982Z,3.41
2023-01-28T22:09:33.553Z,3.35
2023-01-28T22:12:03.389Z,3.37
2023-01-28T22:14:31.986Z,3.38
2023-01-28T22:17:00.128Z,3.31
2023-01-28T22:19:29.676Z,3.42
2023-01-28T22:21:58.217Z,3.42
2023-01-28T22:24:26.458Z,3.44
2023-01-28T22:26:55.755Z,3.54
2023-01-28T22:29:25.191Z,3.49
2023-01-28T22:31:54.871Z,3.44
2023-01-28T22:34:23.838Z,3.40
2023-01-28T22:36:53.670Z,3.43
2023-01-28T22:39:22.063Z,3.40
2023-01-28T22:41:50.806Z,3.43
2023-01-28T22:44:20.209Z,3.40
2023-01-28T22:46:48.677Z,3.40
2023-01-28T22:49:16.645Z,3.49
2023-01-28T22:51:44.587Z,3.44
2023-01-28T22:54:14.942Z,3.49
2023-01-28T22:56:43.223Z,3.41
2023-01-28T22:59:11.374Z,3.42
2023-01-28T23:01:41.380Z,3.37
2023-01-28T23:04:09.581Z,3.47
2023-01-28T23:06:39.078Z,3.40
2023-01-28T23:09:07.009Z,3.34
2023-01-28T23:11:37.540Z,3.42
2023-01-28T23:14:24.053Z,3.28
2023-01-28T23:18:00.298Z,3.42
2023-01-28T23:20:46.627Z,3.37
2023-01-28T23:23:35.383Z,3.38
2023-01-28T23:26:07.072Z,3.41
2023-01-28T23:28:38.512Z,3.44
2023-01-28T23:31:06.572Z,3.35
2023-01-28T23:33:37.013Z,3.42
2023-01-28T23:36:05.924Z,3.41
2023-01-28T23:38:34.401Z,3.34
2023-01-28T23:41:16.417Z,3.22
2023-01-28T23:43:46.634Z,3.23
2023-01-28T23:46:16.092Z,3.17
2023-01-28T23:48:44.312Z,3.19
2023-01-28T23:51:12.211Z,3.23
2023-01-28T23:57:04.698Z,3.01
2023-01-28T23:59:38.788Z,3.18
